sensor_id;sensor_type;location;lat;lon;timestamp;temperature;humidity
431;DHT22;202;48.764;9.172;2023-09-19T00:04:05;19.30;50.90
431;DHT22;202;48.764;9.172;2023-09-19T01:45:33;19.10;51.80
431;DHT22;202;48.764;9.172;2023-09-19T01:48:11;19.30;48.90
431;DHT22;202;48.764;9.172;2023-09-19T01:50:54;19.20;48.10
431;DHT22;202;48.764;9.172;2023-09-19T01:53:25;19.10;48.40
431;DHT22;202;48.764;9.172;2023-09-19T01:55:54;19.10;48.80
431;DHT22;202;48.764;9.172;2023-09-19T01:58:29;19.10;48.10
431;DHT22;202;48.764;9.172;2023-09-19T02:01:00;19.20;48.00
431;DHT22;202;48.764;9.172;2023-09-19T02:03:29;19.30;47.60
431;DHT22;202;48.764;9.172;2023-09-19T02:05:57;19.30;47.60
431;DHT22;202;48.764;9.172;2023-09-19T02:08:24;19.40;46.60
431;DHT22;202;48.764;9.172;2023-09-19T02:10:51;19.40;47.10
431;DHT22;202;48.764;9.172;2023-09-19T02:13:19;19.40;46.80
431;DHT22;202;48.764;9.172;2023-09-19T02:15:46;19.40;46.70
431;DHT22;202;48.764;9.172;2023-09-19T02:18:15;19.30;46.70
431;DHT22;202;48.764;9.172;2023-09-19T02:20:42;19.30;46.40
431;DHT22;202;48.764;9.172;2023-09-19T02:23:10;19.00;48.20
431;DHT22;202;48.764;9.172;2023-09-19T02:25:43;19.00;48.90
431;DHT22;202;48.764;9.172;2023-09-19T02:28:17;19.00;47.90
431;DHT22;202;48.764;9.172;2023-09-19T02:30:47;19.10;48.20
431;DHT22;202;48.764;9.172;2023-09-19T02:33:15;19.00;48.20
431;DHT22;202;48.764;9.172;2023-09-19T02:35:42;18.90;48.80
431;DHT22;202;48.764;9.172;2023-09-19T02:38:09;18.90;48.40
431;DHT22;202;48.764;9.172;2023-09-19T02:40:38;18.90;49.60
431;DHT22;202;48.764;9.172;2023-09-19T02:43:05;18.80;49.70
431;DHT22;202;48.764;9.172;2023-09-19T02:45:33;18.80;50.20
431;DHT22;202;48.764;9.172;2023-09-19T02:48:00;18.70;51.40
431;DHT22;202;48.764;9.172;2023-09-19T02:50:30;18.60;51.40
431;DHT22;202;48.764;9.172;2023-09-19T02:52:56;18.60;51.40
431;DHT22;202;48.764;9.172;2023-09-19T02:55:24;18.60;51.40
431;DHT22;202;48.764;9.172;2023-09-19T02:57:52;18.50;51.30
431;DHT22;202;48.764;9.172;2023-09-19T03:00:21;18.50;51.30
431;DHT22;202;48.764;9.172;2023-09-19T03:02:49;18.60;51.40
431;DHT22;202;48.764;9.172;2023-09-19T03:05:16;18.80;51.20
431;DHT22;202;48.764;9.172;2023-09-19T03:07:45;18.70;50.70
431;DHT22;202;48.764;9.172;2023-09-19T03:10:13;18.60;51.40
431;DHT22;202;48.764;9.172;2023-09-19T03:12:40;18.50;51.80
431;DHT22;202;48.764;9.172;2023-09-19T03:15:08;18.60;51.40
431;DHT22;202;48.764;9.172;2023-09-19T03:17:35;18.70;51.40
431;DHT22;202;48.764;9.172;2023-09-19T03:20:03;18.70;51.40
431;DHT22;202;48.764;9.172;2023-09-19T03:22:33;18.70;50.80
431;DHT22;202;48.764;9.172;2023-09-19T03:25:01;18.70;51.40
431;DHT22;202;48.764;9.172;2023-09-19T03:27:29;18.60;51.40
431;DHT22;202;48.764;9.172;2023-09-19T03:29:56;18.80;51.40
431;DHT22;202;48.764;9.172;2023-09-19T03:32:23;18.90;50.20
431;DHT22;202;48.764;9.172;2023-09-19T03:34:50;18.90;50.60
431;DHT22;202;48.764;9.172;2023-09-19T03:37:17;19.00;50.50
431;DHT22;202;48.764;9.172;2023-09-19T03:39:44;19.10;49.80
431;DHT22;202;48.764;9.172;2023-09-19T03:42:11;19.10;49.70
431;DHT22;202;48.764;9.172;2023-09-19T03:44:38;19.20;48.80
431;DHT22;202;48.764;9.172;2023-09-19T03:47:05;19.10;48.50
431;DHT22;202;48.764;9.172;2023-09-19T03:49:32;19.10;49.50
431;DHT22;202;48.764;9.172;2023-09-19T03:51:59;18.90;50.20
431;DHT22;202;48.764;9.172;2023-09-19T03:54:26;18.90;50.60
431;DHT22;202;48.764;9.172;2023-09-19T03:56:53;19.00;51.00
431;DHT22;202;48.764;9.172;2023-09-19T03:59:21;19.00;50.30
431;DHT22;202;48.764;9.172;2023-09-19T04:01:48;19.10;49.40
431;DHT22;202;48.764;9.172;2023-09-19T04:04:15;19.10;49.50
431;DHT22;202;48.764;9.172;2023-09-19T04:06:44;19.20;48.90
431;DHT22;202;48.764;9.172;2023-09-19T04:09:11;19.20;47.90
431;DHT22;202;48.764;9.172;2023-09-19T04:11:38;19.20;48.00
431;DHT22;202;48.764;9.172;2023-09-19T04:14:05;19.10;48.20
431;DHT22;202;48.764;9.172;2023-09-19T04:16:33;19.10;48.70
431;DHT22;202;48.764;9.172;2023-09-19T04:19:01;19.10;49.30
431;DHT22;202;48.764;9.172;2023-09-19T04:21:28;19.10;48.50
431;DHT22;202;48.764;9.172;2023-09-19T04:23:55;19.20;48.40
431;DHT22;202;48.764;9.172;2023-09-19T04:26:22;19.10;49.00
431;DHT22;202;48.764;9.172;2023-09-19T04:28:51;19.00;49.40
431;DHT22;202;48.764;9.172;2023-09-19T04:31:18;19.10;49.70
431;DHT22;202;48.764;9.172;2023-09-19T04:33:47;19.00;50.00
431;DHT22;202;48.764;9.172;2023-09-19T04:36:14;19.00;50.90
431;DHT22;202;48.764;9.172;2023-09-19T04:38:41;18.90;51.60
431;DHT22;202;48.764;9.172;2023-09-19T04:41:08;18.90;51.60
431;DHT22;202;48.764;9.172;2023-09-19T04:43:34;18.90;51.60
431;DHT22;202;48.764;9.172;2023-09-19T04:46:01;19.00;51.70
431;DHT22;202;48.764;9.172;2023-09-19T04:48:28;18.90;52.80
431;DHT22;202;48.764;9.172;2023-09-19T04:50:57;18.80;52.50
431;DHT22;202;48.764;9.172;2023-09-19T04:53:25;18.90;52.30
431;DHT22;202;48.764;9.172;2023-09-19T04:55:53;18.90;52.50
431;DHT22;202;48.764;9.172;2023-09-19T04:58:21;18.90;55.20
431;DHT22;202;48.764;9.172;2023-09-19T05:00:48;18.80;57.70
431;DHT22;202;48.764;9.172;2023-09-19T05:03:16;18.80;57.50
431;DHT22;202;48.764;9.172;2023-09-19T05:05:45;18.80;58.80
431;DHT22;202;48.764;9.172;2023-09-19T05:08:14;18.90;59.50
431;DHT22;202;48.764;9.172;2023-09-19T05:10:41;18.90;59.60
431;DHT22;202;48.764;9.172;2023-09-19T05:13:08;18.90;59.30
431;DHT22;202;48.764;9.172;2023-09-19T05:15:34;19.00;60.50
431;DHT22;202;48.764;9.172;2023-09-19T05:18:02;18.90;60.80
431;DHT22;202;48.764;9.172;2023-09-19T05:20:29;18.70;61.10
431;DHT22;202;48.764;9.172;2023-09-19T05:22:59;18.80;60.60
431;DHT22;202;48.764;9.172;2023-09-19T05:25:28;18.90;60.80
431;DHT22;202;48.764;9.172;2023-09-19T05:27:57;18.80;61.20
431;DHT22;202;48.764;9.172;2023-09-19T05:30:24;18.80;61.20
431;DHT22;202;48.764;9.172;2023-09-19T05:32:53;18.80;61.20
431;DHT22;202;48.764;9.172;2023-09-19T05:35:20;18.80;61.20
431;DHT22;202;48.764;9.172;2023-09-19T05:37:48;18.80;61.20
431;DHT22;202;48.764;9.172;2023-09-19T05:40:16;18.80;62.10
431;DHT22;202;48.764;9.172;2023-09-19T05:42:44;18.80;62.10
431;DHT22;202;48.764;9.172;2023-09-19T05:45:12;18.80;60.10
431;DHT22;202;48.764;9.172;2023-09-19T05:47:38;18.70;62.60
431;DHT22;202;48.764;9.172;2023-09-19T05:50:06;18.80;64.90
431;DHT22;202;48.764;9.172;2023-09-19T05:52:34;18.70;61.10
431;DHT22;202;48.764;9.172;2023-09-19T05:55:03;18.60;62.20
431;DHT22;202;48.764;9.172;2023-09-19T05:57:30;18.60;64.30
431;DHT22;202;48.764;9.172;2023-09-19T05:59:59;18.60;65.50
431;DHT22;202;48.764;9.172;2023-09-19T06:02:26;18.60;62.60
431;DHT22;202;48.764;9.172;2023-09-19T06:04:58;18.60;63.90
431;DHT22;202;48.764;9.172;2023-09-19T06:07:25;18.60;65.60
431;DHT22;202;48.764;9.172;2023-09-19T06:09:54;18.50;62.50
431;DHT22;202;48.764;9.172;2023-09-19T06:12:22;18.50;64.50
431;DHT22;202;48.764;9.172;2023-09-19T06:14:49;18.50;65.10
431;DHT22;202;48.764;9.172;2023-09-19T06:17:18;18.40;66.80
431;DHT22;202;48.764;9.172;2023-09-19T06:19:48;18.50;62.60
431;DHT22;202;48.764;9.172;2023-09-19T06:22:16;18.50;63.90
431;DHT22;202;48.764;9.172;2023-09-19T06:24:44;18.40;65.00
431;DHT22;202;48.764;9.172;2023-09-19T06:27:18;18.40;65.50
431;DHT22;202;48.764;9.172;2023-09-19T06:29:47;18.40;64.40
431;DHT22;202;48.764;9.172;2023-09-19T06:32:14;18.40;62.10
431;DHT22;202;48.764;9.172;2023-09-19T06:34:42;18.40;61.40
431;DHT22;202;48.764;9.172;2023-09-19T06:37:11;18.40;60.50
431;DHT22;202;48.764;9.172;2023-09-19T06:39:38;18.30;60.70
431;DHT22;202;48.764;9.172;2023-09-19T06:42:05;18.40;61.70
431;DHT22;202;48.764;9.172;2023-09-19T06:44:34;18.50;59.50
431;DHT22;202;48.764;9.172;2023-09-19T06:47:01;18.60;60.70
431;DHT22;202;48.764;9.172;2023-09-19T06:49:28;18.70;60.50
431;DHT22;202;48.764;9.172;2023-09-19T06:51:59;18.70;59.10
431;DHT22;202;48.764;9.172;2023-09-19T06:54:54;18.80;58.80
431;DHT22;202;48.764;9.172;2023-09-19T06:57:59;18.90;59.30
431;DHT22;202;48.764;9.172;2023-09-19T07:03:50;19.10;53.40
431;DHT22;202;48.764;9.172;2023-09-19T07:06:38;19.30;56.30
431;DHT22;202;48.764;9.172;2023-09-19T07:09:16;19.60;54.10
431;DHT22;202;48.764;9.172;2023-09-19T07:12:04;19.90;50.30
431;DHT22;202;48.764;9.172;2023-09-19T07:14:39;20.20;49.10
431;DHT22;202;48.764;9.172;2023-09-19T07:17:37;20.30;47.00
431;DHT22;202;48.764;9.172;2023-09-19T07:20:32;20.40;47.20
431;DHT22;202;48.764;9.172;2023-09-19T07:23:22;20.40;46.80
431;DHT22;202;48.764;9.172;2023-09-19T07:26:14;20.20;47.30
431;DHT22;202;48.764;9.172;2023-09-19T07:29:18;20.20;46.20
431;DHT22;202;48.764;9.172;2023-09-19T07:32:10;20.10;45.40
431;DHT22;202;48.764;9.172;2023-09-19T07:35:10;20.10;48.50
431;DHT22;202;48.764;9.172;2023-09-19T07:38:40;20.20;47.70
431;DHT22;202;48.764;9.172;2023-09-19T07:41:10;20.40;49.10
431;DHT22;202;48.764;9.172;2023-09-19T07:47:59;20.90;46.20
431;DHT22;202;48.764;9.172;2023-09-19T10:52:22;23.00;17.90
431;DHT22;202;48.764;9.172;2023-09-19T11:05:59;23.20;17.60
431;DHT22;202;48.764;9.172;2023-09-19T13:37:21;23.30;14.90
431;DHT22;202;48.764;9.172;2023-09-19T13:39:50;23.20;15.70
431;DHT22;202;48.764;9.172;2023-09-19T13:43:24;23.20;16.30
431;DHT22;202;48.764;9.172;2023-09-19T13:45:49;23.20;17.00
431;DHT22;202;48.764;9.172;2023-09-19T13:48:30;23.30;17.20
431;DHT22;202;48.764;9.172;2023-09-19T13:51:08;23.40;16.50
431;DHT22;202;48.764;9.172;2023-09-19T13:53:46;23.40;17.20
431;DHT22;202;48.764;9.172;2023-09-19T13:56:39;23.50;15.90
431;DHT22;202;48.764;9.172;2023-09-19T13:59:09;23.50;14.70
431;DHT22;202;48.764;9.172;2023-09-19T14:01:46;23.50;14.50
431;DHT22;202;48.764;9.172;2023-09-19T14:04:15;23.40;15.50
431;DHT22;202;48.764;9.172;2023-09-19T14:06:45;23.50;14.80
431;DHT22;202;48.764;9.172;2023-09-19T14:09:13;23.50;15.00
431;DHT22;202;48.764;9.172;2023-09-19T14:11:42;23.60;15.00
431;DHT22;202;48.764;9.172;2023-09-19T14:14:14;23.60;14.70
431;DHT22;202;48.764;9.172;2023-09-19T14:16:41;23.60;14.30
431;DHT22;202;48.764;9.172;2023-09-19T14:19:10;23.50;15.20
431;DHT22;202;48.764;9.172;2023-09-19T14:22:02;23.60;14.80
431;DHT22;202;48.764;9.172;2023-09-19T14:24:43;23.60;14.90
431;DHT22;202;48.764;9.172;2023-09-19T14:27:10;23.60;15.10
431;DHT22;202;48.764;9.172;2023-09-19T14:29:37;23.50;13.20
431;DHT22;202;48.764;9.172;2023-09-19T14:32:08;23.60;12.90
431;DHT22;202;48.764;9.172;2023-09-19T14:34:41;23.60;13.20
431;DHT22;202;48.764;9.172;2023-09-19T14:37:16;23.60;13.30
431;DHT22;202;48.764;9.172;2023-09-19T14:39:48;23.60;13.40
431;DHT22;202;48.764;9.172;2023-09-19T14:42:19;23.60;13.10
431;DHT22;202;48.764;9.172;2023-09-19T14:44:48;23.60;12.60
431;DHT22;202;48.764;9.172;2023-09-19T14:47:35;23.60;12.70
431;DHT22;202;48.764;9.172;2023-09-19T14:50:06;23.50;12.80
431;DHT22;202;48.764;9.172;2023-09-19T14:52:40;23.40;12.30
431;DHT22;202;48.764;9.172;2023-09-19T14:55:14;23.40;12.60
431;DHT22;202;48.764;9.172;2023-09-19T14:57:48;23.40;12.30
431;DHT22;202;48.764;9.172;2023-09-19T15:00:21;23.50;12.70
431;DHT22;202;48.764;9.172;2023-09-19T15:02:49;23.50;13.00
431;DHT22;202;48.764;9.172;2023-09-19T15:05:16;23.60;13.10
431;DHT22;202;48.764;9.172;2023-09-19T15:07:44;23.70;13.20
431;DHT22;202;48.764;9.172;2023-09-19T15:10:17;23.70;12.80
431;DHT22;202;48.764;9.172;2023-09-19T15:12:47;23.60;12.10
431;DHT22;202;48.764;9.172;2023-09-19T15:15:19;23.60;13.20
431;DHT22;202;48.764;9.172;2023-09-19T15:17:46;23.50;12.70
431;DHT22;202;48.764;9.172;2023-09-19T15:20:13;23.50;13.10
431;DHT22;202;48.764;9.172;2023-09-19T15:22:44;23.50;13.50
431;DHT22;202;48.764;9.172;2023-09-19T15:25:22;23.50;14.10
431;DHT22;202;48.764;9.172;2023-09-19T15:27:55;23.60;12.60
431;DHT22;202;48.764;9.172;2023-09-19T15:30:37;23.40;12.60
431;DHT22;202;48.764;9.172;2023-09-19T15:33:13;23.40;12.80
431;DHT22;202;48.764;9.172;2023-09-19T15:35:51;23.40;12.80
431;DHT22;202;48.764;9.172;2023-09-19T15:38:24;23.50;13.10
431;DHT22;202;48.764;9.172;2023-09-19T15:40:54;23.50;13.00
431;DHT22;202;48.764;9.172;2023-09-19T15:43:43;23.60;12.70
431;DHT22;202;48.764;9.172;2023-09-19T15:46:11;23.50;13.10
431;DHT22;202;48.764;9.172;2023-09-19T15:48:42;23.40;12.80
431;DHT22;202;48.764;9.172;2023-09-19T15:51:25;23.40;13.10
431;DHT22;202;48.764;9.172;2023-09-19T15:53:55;23.40;13.20
431;DHT22;202;48.764;9.172;2023-09-19T15:56:48;23.40;13.90
431;DHT22;202;48.764;9.172;2023-09-19T15:59:27;23.50;14.10
431;DHT22;202;48.764;9.172;2023-09-19T16:02:02;23.50;14.30
431;DHT22;202;48.764;9.172;2023-09-19T16:04:41;23.60;14.10
431;DHT22;202;48.764;9.172;2023-09-19T16:07:37;23.60;14.00
431;DHT22;202;48.764;9.172;2023-09-19T16:10:12;23.60;13.90
431;DHT22;202;48.764;9.172;2023-09-19T16:12:52;23.50;13.90
431;DHT22;202;48.764;9.172;2023-09-19T16:15:42;23.50;13.80
431;DHT22;202;48.764;9.172;2023-09-19T16:18:22;23.50;13.70
431;DHT22;202;48.764;9.172;2023-09-19T16:21:03;23.40;13.70
431;DHT22;202;48.764;9.172;2023-09-19T16:23:44;23.50;14.40
431;DHT22;202;48.764;9.172;2023-09-19T16:26:12;23.40;14.20
431;DHT22;202;48.764;9.172;2023-09-19T16:28:58;23.50;14.00
431;DHT22;202;48.764;9.172;2023-09-19T16:31:30;23.50;14.20
431;DHT22;202;48.764;9.172;2023-09-19T16:34:04;23.40;14.00
431;DHT22;202;48.764;9.172;2023-09-19T16:36:31;23.40;14.20
431;DHT22;202;48.764;9.172;2023-09-19T16:39:02;23.40;15.00
431;DHT22;202;48.764;9.172;2023-09-19T16:41:33;23.40;14.60
431;DHT22;202;48.764;9.172;2023-09-19T16:44:06;23.40;15.30
431;DHT22;202;48.764;9.172;2023-09-19T16:46:35;23.40;14.20
431;DHT22;202;48.764;9.172;2023-09-19T16:49:05;23.40;14.60
431;DHT22;202;48.764;9.172;2023-09-19T16:51:34;23.40;15.40
431;DHT22;202;48.764;9.172;2023-09-19T16:54:06;23.30;15.40
431;DHT22;202;48.764;9.172;2023-09-19T16:56:34;23.30;15.40
431;DHT22;202;48.764;9.172;2023-09-19T16:59:15;23.20;15.60
431;DHT22;202;48.764;9.172;2023-09-19T17:02:12;23.20;15.60
431;DHT22;202;48.764;9.172;2023-09-19T17:04:42;23.20;16.60
431;DHT22;202;48.764;9.172;2023-09-19T17:07:19;23.20;15.80
431;DHT22;202;48.764;9.172;2023-09-19T17:09:56;23.10;17.50
431;DHT22;202;48.764;9.172;2023-09-19T17:12:44;23.00;17.50
431;DHT22;202;48.764;9.172;2023-09-19T17:15:13;23.00;18.70
431;DHT22;202;48.764;9.172;2023-09-19T17:17:45;22.90;17.50
431;DHT22;202;48.764;9.172;2023-09-19T17:20:15;22.90;17.40
431;DHT22;202;48.764;9.172;2023-09-19T17:22:48;22.70;18.70
431;DHT22;202;48.764;9.172;2023-09-19T17:25:24;22.70;18.80
431;DHT22;202;48.764;9.172;2023-09-19T17:28:16;22.70;19.50
431;DHT22;202;48.764;9.172;2023-09-19T17:30:51;22.60;19.40
431;DHT22;202;48.764;9.172;2023-09-19T17:33:41;22.50;20.10
431;DHT22;202;48.764;9.172;2023-09-19T17:36:36;22.40;20.10
431;DHT22;202;48.764;9.172;2023-09-19T17:39:27;22.40;19.60
431;DHT22;202;48.764;9.172;2023-09-19T17:42:32;22.30;21.40
431;DHT22;202;48.764;9.172;2023-09-19T17:45:50;22.20;21.00
431;DHT22;202;48.764;9.172;2023-09-19T17:54:33;22.20;21.10
431;DHT22;202;48.764;9.172;2023-09-19T17:57:31;22.00;21.60
431;DHT22;202;48.764;9.172;2023-09-19T18:00:29;22.00;21.50
431;DHT22;202;48.764;9.172;2023-09-19T18:06:21;21.90;22.60
431;DHT22;202;48.764;9.172;2023-09-19T18:09:19;21.70;22.70
431;DHT22;202;48.764;9.172;2023-09-19T18:11:50;21.70;22.50
431;DHT22;202;48.764;9.172;2023-09-19T18:14:49;21.70;23.20
431;DHT22;202;48.764;9.172;2023-09-19T18:17:16;21.60;23.20
431;DHT22;202;48.764;9.172;2023-09-19T18:20:19;21.60;24.20
431;DHT22;202;48.764;9.172;2023-09-19T18:23:01;21.60;24.40
431;DHT22;202;48.764;9.172;2023-09-19T18:25:57;21.60;24.20
431;DHT22;202;48.764;9.172;2023-09-19T18:28:40;21.60;23.50
431;DHT22;202;48.764;9.172;2023-09-19T18:31:31;21.60;23.70
431;DHT22;202;48.764;9.172;2023-09-19T18:34:21;21.50;24.30
431;DHT22;202;48.764;9.172;2023-09-19T18:37:00;21.50;22.00
431;DHT22;202;48.764;9.172;2023-09-19T18:39:29;21.40;22.50
431;DHT22;202;48.764;9.172;2023-09-19T18:42:21;21.40;22.10
431;DHT22;202;48.764;9.172;2023-09-19T18:44:53;21.40;22.80
431;DHT22;202;48.764;9.172;2023-09-19T18:48:56;21.30;22.60
431;DHT22;202;48.764;9.172;2023-09-19T18:50:57;21.20;23.00
431;DHT22;202;48.764;9.172;2023-09-19T18:54:44;21.20;22.70
431;DHT22;202;48.764;9.172;2023-09-19T18:58:45;21.20;23.70
431;DHT22;202;48.764;9.172;2023-09-19T19:01:07;21.20;23.60
431;DHT22;202;48.764;9.172;2023-09-19T19:04:02;21.10;24.50
431;DHT22;202;48.764;9.172;2023-09-19T19:07:04;21.00;24.60
431;DHT22;202;48.764;9.172;2023-09-19T19:10:04;21.00;24.80
431;DHT22;202;48.764;9.172;2023-09-19T19:12:58;21.00;24.50
431;DHT22;202;48.764;9.172;2023-09-19T19:15:38;21.10;23.30
431;DHT22;202;48.764;9.172;2023-09-19T19:19:36;21.10;23.60
431;DHT22;202;48.764;9.172;2023-09-19T19:22:08;21.10;22.20
431;DHT22;202;48.764;9.172;2023-09-19T19:25:15;21.00;24.10
431;DHT22;202;48.764;9.172;2023-09-19T19:28:12;21.00;23.70
431;DHT22;202;48.764;9.172;2023-09-19T19:31:11;21.10;22.90
431;DHT22;202;48.764;9.172;2023-09-19T19:34:07;21.10;22.60
431;DHT22;202;48.764;9.172;2023-09-19T19:40:48;21.10;23.10
431;DHT22;202;48.764;9.172;2023-09-19T19:43:34;21.10;23.50
431;DHT22;202;48.764;9.172;2023-09-19T19:46:49;21.10;22.80
431;DHT22;202;48.764;9.172;2023-09-19T19:49:42;21.00;22.50
